Time;durP1;ratioP1;P1;durP2;ratioP2;P2;SDS_P1;SDS_P2;PMS_P1;PMS_P2;Temp;Humidity;BMP_temperature;BMP_pressure;BME280_temperature;BME280_humidity;BME280_pressure;Samples;Min_cycle;Max_cycle;Signal;HPM_P1;HPM_P2
2021/12/27 00:01:25;;;;;;;0.20;0.10;;;;;;;3.89;100.00;99157.56;5031647;28;20888;-77
2021/12/27 00:03:54;;;;;;;0.73;0.70;;;;;;;3.89;100.00;99147.06;5031342;28;20451;-77
2021/12/27 00:06:21;;;;;;;0.20;0.10;;;;;;;3.82;100.00;99160.31;5035759;28;20957;-77
2021/12/27 00:08:50;;;;;;;1.03;0.93;;;;;;;3.80;100.00;99148.97;5035379;28;20464;-77
2021/12/27 00:11:17;;;;;;;0.20;0.20;;;;;;;3.77;100.00;99156.91;5042088;28;20458;-77
2021/12/27 00:13:43;;;;;;;0.20;0.13;;;;;;;3.89;100.00;99160.19;5055634;28;20544;-77
2021/12/27 00:16:10;;;;;;;0.20;0.10;;;;;;;3.90;100.00;99165.44;5038918;28;20457;-77
2021/12/27 00:18:37;;;;;;;0.40;0.40;;;;;;;3.86;100.00;99148.00;5038121;28;20455;-77
2021/12/27 00:21:04;;;;;;;1.43;1.43;;;;;;;3.85;100.00;99148.91;5031796;28;20532;-77
2021/12/27 00:23:32;;;;;;;0.20;0.10;;;;;;;3.97;100.00;99138.09;5039062;28;20455;-77
2021/12/27 00:25:59;;;;;;;0.20;0.10;;;;;;;4.03;100.00;99138.00;5046543;28;20565;-77
2021/12/27 00:28:27;;;;;;;0.20;0.10;;;;;;;3.89;100.00;99133.91;5043189;28;20502;-77
2021/12/27 00:30:54;;;;;;;0.20;0.10;;;;;;;3.98;100.00;99137.22;5028368;28;20547;-77
2021/12/27 00:33:20;;;;;;;0.20;0.20;;;;;;;3.85;100.00;99138.38;5035775;28;20972;-77
2021/12/27 00:35:48;;;;;;;0.20;0.10;;;;;;;3.86;100.00;99135.72;5049573;28;20988;-77
2021/12/27 00:38:15;;;;;;;0.20;0.10;;;;;;;3.83;100.00;99124.38;5026587;28;20960;-77
2021/12/27 00:40:42;;;;;;;0.20;0.10;;;;;;;3.83;100.00;99134.88;5030332;28;20513;-77
2021/12/27 00:43:09;;;;;;;0.20;0.10;;;;;;;3.95;100.00;99126.75;5039041;28;20933;-77
2021/12/27 00:45:36;;;;;;;0.20;0.10;;;;;;;3.95;100.00;99126.75;5038729;28;20479;-77
2021/12/27 00:48:04;;;;;;;0.20;0.10;;;;;;;3.92;100.00;99118.94;5024940;28;20456;-77
2021/12/27 00:50:30;;;;;;;1.53;1.13;;;;;;;4.00;100.00;99121.44;5036534;28;20648;-77
2021/12/27 00:52:57;;;;;;;0.20;0.20;;;;;;;4.15;100.00;99116.69;5039130;28;20523;-78
2021/12/27 00:55:24;;;;;;;0.30;0.20;;;;;;;4.03;100.00;99116.09;5045048;28;20479;-77
2021/12/27 00:57:53;;;;;;;0.20;0.10;;;;;;;4.00;100.00;99129.31;5054477;28;20461;-77
2021/12/27 01:00:22;;;;;;;0.20;0.10;;;;;;;3.98;100.00;99136.38;5037392;28;20487;-77
2021/12/27 01:02:49;;;;;;;0.20;0.10;;;;;;;3.94;100.00;99135.53;5040249;28;20538;-77
2021/12/27 01:05:16;;;;;;;2.37;1.70;;;;;;;3.93;100.00;99125.94;5035094;28;20483;-77
2021/12/27 01:07:43;;;;;;;0.20;0.20;;;;;;;3.94;100.00;99127.66;5024932;28;20795;-77
2021/12/27 01:13:04;;;;;;;0.20;0.10;;;;;;;3.93;100.00;99128.56;5039003;28;20458;-77
2021/12/27 01:18:01;;;;;;;0.27;0.20;;;;;;;3.91;100.00;99132.13;5023988;28;20484;-77
2021/12/27 01:20:27;;;;;;;0.20;0.10;;;;;;;3.88;100.00;99129.56;5034683;28;20831;-78
2021/12/27 01:22:55;;;;;;;0.20;0.10;;;;;;;3.88;100.00;99130.44;5032849;23;20495;-53
2021/12/27 01:25:23;;;;;;;0.20;0.10;;;;;;;3.85;100.00;99131.38;5033424;28;20510;-54
2021/12/27 01:27:53;;;;;;;0.20;0.10;;;;;;;3.79;100.00;99136.72;5030103;28;20516;-53
2021/12/27 01:30:22;;;;;;;0.20;0.10;;;;;;;3.88;100.00;99137.44;5014046;28;20508;-54
2021/12/27 01:32:54;;;;;;;0.20;0.10;;;;;;;3.92;100.00;99134.72;5014323;28;21019;-59
2021/12/27 01:35:22;;;;;;;0.20;0.13;;;;;;;3.87;100.00;99128.69;5017192;28;20453;-57
2021/12/27 01:37:51;;;;;;;0.20;0.10;;;;;;;3.81;100.00;99120.91;5017313;28;20569;-58
2021/12/27 01:40:21;;;;;;;0.20;0.20;;;;;;;3.78;100.00;99131.50;5016724;28;20527;-58
2021/12/27 01:43:03;;;;;;;0.20;0.10;;;;;;;3.88;100.00;99130.44;5015051;28;20998;-57
2021/12/27 01:45:29;;;;;;;0.20;0.10;;;;;;;3.86;100.00;99122.56;5016685;28;20460;-58
2021/12/27 01:47:56;;;;;;;0.20;0.10;;;;;;;3.82;100.00;99134.03;5009943;28;20503;-58
2021/12/27 01:50:23;;;;;;;0.20;0.13;;;;;;;3.82;100.00;99127.91;5016733;28;20487;-57
2021/12/27 01:52:50;;;;;;;0.20;0.10;;;;;;;3.84;100.00;99124.38;5016209;28;20449;-57
2021/12/27 01:55:18;;;;;;;0.20;0.10;;;;;;;3.79;100.00;99125.34;5016303;28;20954;-58
2021/12/27 01:57:45;;;;;;;1.70;1.60;;;;;;;3.79;100.00;99131.47;5016364;28;20893;-57
2021/12/27 02:00:13;;;;;;;1.40;1.33;;;;;;;3.81;100.00;99124.41;5016373;28;20448;-57
2021/12/27 02:02:42;;;;;;;0.20;0.10;;;;;;;3.74;100.00;99116.69;5015695;28;20464;-57
2021/12/27 02:05:11;;;;;;;0.20;0.10;;;;;;;3.81;100.00;99115.66;5016395;28;20449;-57
2021/12/27 02:07:37;;;;;;;0.20;0.10;;;;;;;3.80;100.00;99100.78;5015982;28;20461;-57
2021/12/27 02:10:05;;;;;;;0.20;0.10;;;;;;;3.54;100.00;99112.69;5016582;28;20484;-57
2021/12/27 02:12:32;;;;;;;1.80;1.80;;;;;;;3.72;100.00;99108.84;5015433;28;20448;-57
2021/12/27 02:15:03;;;;;;;0.20;0.10;;;;;;;3.51;100.00;99109.25;5014776;28;20546;-57
2021/12/27 02:17:30;;;;;;;0.27;0.17;;;;;;;3.56;100.00;99113.53;5013870;28;20518;-55
2021/12/27 02:19:56;;;;;;;0.67;0.53;;;;;;;3.64;100.00;99117.78;5013010;28;20452;-55
2021/12/27 02:22:23;;;;;;;0.20;0.10;;;;;;;3.76;100.00;99113.13;5011944;28;20472;-55
2021/12/27 02:24:50;;;;;;;0.20;0.10;;;;;;;3.73;100.00;99109.72;5013410;28;20503;-55
2021/12/27 02:27:16;;;;;;;0.20;0.10;;;;;;;3.77;100.00;99104.34;5013045;28;21015;-55
2021/12/27 02:29:43;;;;;;;0.20;0.10;;;;;;;3.74;100.00;99112.31;5012980;28;21071;-55
2021/12/27 02:32:10;;;;;;;0.20;0.10;;;;;;;3.71;100.00;99108.88;5012618;28;20957;-55
2021/12/27 02:34:37;;;;;;;1.13;1.13;;;;;;;3.79;100.00;99107.81;5012625;28;20520;-55
2021/12/27 02:37:03;;;;;;;0.20;0.20;;;;;;;3.71;100.00;99101.88;5012256;28;20954;-56
2021/12/27 02:39:30;;;;;;;0.30;0.20;;;;;;;3.68;100.00;99109.78;5013010;28;20484;-55
2021/12/27 02:42:02;;;;;;;0.20;0.17;;;;;;;3.76;100.00;99109.66;5012962;28;20463;-55
2021/12/27 02:44:28;;;;;;;0.20;0.17;;;;;;;3.80;100.00;99111.31;5012787;28;20538;-55
2021/12/27 02:46:55;;;;;;;0.20;0.20;;;;;;;3.79;100.00;99106.94;5012690;28;20506;-55
2021/12/27 02:49:22;;;;;;;0.20;0.10;;;;;;;3.82;100.00;99104.25;5012265;28;20567;-55
2021/12/27 02:51:48;;;;;;;0.20;0.10;;;;;;;3.77;100.00;99100.88;5012830;28;20460;-55
2021/12/27 02:54:15;;;;;;;0.20;0.10;;;;;;;3.80;100.00;99100.78;5012334;28;21887;-55
2021/12/27 02:56:43;;;;;;;0.20;0.10;;;;;;;3.82;100.00;99105.13;5012757;28;20467;-55
2021/12/27 02:59:09;;;;;;;0.20;0.10;;;;;;;3.83;100.00;99096.34;5012076;28;20525;-55
2021/12/27 03:01:36;;;;;;;1.37;1.27;;;;;;;3.78;100.00;99097.34;5012662;28;20953;-55
2021/12/27 03:04:03;;;;;;;0.20;0.10;;;;;;;3.78;100.00;99097.34;5013915;28;20479;-56
2021/12/27 03:06:30;;;;;;;0.20;0.10;;;;;;;3.79;100.00;99089.41;5008108;28;20894;-58
2021/12/27 03:08:57;;;;;;;0.20;0.10;;;;;;;3.79;100.00;99086.78;5014472;28;20527;-58
2021/12/27 03:11:23;;;;;;;0.20;0.10;;;;;;;3.73;100.00;99081.69;5012524;28;20452;-57
2021/12/27 03:13:51;;;;;;;0.20;0.10;;;;;;;3.80;100.00;99078.00;5014362;28;20572;-58
2021/12/27 03:16:20;;;;;;;0.20;0.20;;;;;;;3.94;100.00;99085.59;5014323;28;20824;-57
2021/12/27 03:18:50;;;;;;;0.30;0.30;;;;;;;3.77;100.00;99074.59;5014247;28;20468;-58
2021/12/27 03:21:17;;;;;;;0.20;0.20;;;;;;;3.61;100.00;99074.03;5013708;28;20950;-58
2021/12/27 03:23:46;;;;;;;0.20;0.10;;;;;;;3.65;100.00;99062.56;5014360;28;20448;-58
2021/12/27 03:26:14;;;;;;;0.40;0.40;;;;;;;3.74;100.00;99069.41;5014469;28;20448;-58
2021/12/27 03:28:42;;;;;;;0.20;0.10;;;;;;;3.83;100.00;99075.31;5013735;28;20996;-57
2021/12/27 03:31:10;;;;;;;0.20;0.10;;;;;;;3.80;100.00;99072.75;5013611;28;21001;-57
2021/12/27 03:33:37;;;;;;;0.30;0.30;;;;;;;3.81;100.00;99071.84;5006729;28;20484;-58
2021/12/27 03:36:06;;;;;;;0.20;0.10;;;;;;;3.79;100.00;99070.16;5013912;28;20448;-58
2021/12/27 03:38:33;;;;;;;0.20;0.10;;;;;;;3.74;100.00;99066.78;5013453;28;20973;-58
2021/12/27 03:41:02;;;;;;;0.20;0.10;;;;;;;3.80;100.00;99064.88;5013982;28;20452;-53
2021/12/27 03:43:29;;;;;;;0.20;0.10;;;;;;;3.92;100.00;99062.88;5011905;28;20523;-54
2021/12/27 03:45:56;;;;;;;0.20;0.13;;;;;;;3.80;100.00;99069.25;5012309;28;20452;-54
2021/12/27 03:48:23;;;;;;;0.20;0.20;;;;;;;3.83;100.00;99062.16;5011161;28;20511;-53
2021/12/27 03:50:50;;;;;;;0.20;0.10;;;;;;;3.87;100.00;99063.00;5012119;28;20464;-54
2021/12/27 03:53:16;;;;;;;0.20;0.10;;;;;;;3.81;100.00;99052.59;5011070;28;20939;-53
2021/12/27 03:55:43;;;;;;;0.20;0.10;;;;;;;3.76;100.00;99057.94;5011507;28;20510;-53
2021/12/27 03:58:22;;;;;;;0.20;0.10;;;;;;;3.78;100.00;99066.66;5011521;28;20501;-54
2021/12/27 04:01:01;;;;;;;0.20;0.10;;;;;;;3.80;100.00;99059.59;5008300;28;20459;-53
2021/12/27 04:03:30;;;;;;;0.20;0.17;;;;;;;3.89;100.00;99062.94;5011799;28;20460;-53
2021/12/27 04:05:57;;;;;;;0.40;0.40;;;;;;;3.82;100.00;99063.06;5011984;28;20591;-53
2021/12/27 04:08:24;;;;;;;0.20;0.10;;;;;;;3.75;100.00;99061.47;5011541;28;21017;-53
2021/12/27 04:10:51;;;;;;;0.20;0.10;;;;;;;3.75;100.00;99056.22;5011652;28;20483;-53
2021/12/27 04:13:21;;;;;;;0.20;0.10;;;;;;;3.76;100.00;99057.09;5011723;28;20453;-53
2021/12/27 04:15:49;;;;;;;0.20;0.10;;;;;;;3.75;100.00;99056.22;5011512;28;20461;-53
2021/12/27 04:18:17;;;;;;;0.30;0.30;;;;;;;3.75;100.00;99055.38;5014007;28;20503;-57
2021/12/27 04:20:44;;;;;;;0.20;0.10;;;;;;;3.78;100.00;99056.16;5013904;28;20510;-57
2021/12/27 04:23:10;;;;;;;0.20;0.10;;;;;;;3.79;100.00;99062.28;5016685;28;21015;-57
2021/12/27 04:25:38;;;;;;;0.20;0.10;;;;;;;3.79;100.00;99054.38;5018141;28;20475;-58
2021/12/27 04:28:05;;;;;;;0.30;0.20;;;;;;;3.82;100.00;99046.44;5017814;28;20535;-57
2021/12/27 04:30:32;;;;;;;0.20;0.10;;;;;;;3.68;100.00;99044.09;5018690;28;20799;-58
2021/12/27 04:32:59;;;;;;;0.20;0.10;;;;;;;3.69;100.00;99031.81;5017424;28;20461;-58
2021/12/27 04:35:28;;;;;;;0.20;0.10;;;;;;;3.71;100.00;99037.94;5018212;28;20495;-58
2021/12/27 04:37:55;;;;;;;0.20;0.10;;;;;;;3.87;100.00;99028.81;5017998;28;20476;-58
2021/12/27 04:40:25;;;;;;;3.73;1.60;;;;;;;3.75;100.00;99022.06;5018406;28;20456;-57
2021/12/27 04:42:59;;;;;;;0.20;0.10;;;;;;;3.72;100.00;99030.03;5018726;28;20460;-57
2021/12/27 04:45:26;;;;;;;0.20;0.10;;;;;;;3.81;100.00;99032.44;5018170;28;20444;-58
2021/12/27 04:47:52;;;;;;;0.20;0.10;;;;;;;3.85;100.00;99031.50;5017514;28;20539;-57
2021/12/27 04:50:21;;;;;;;0.20;0.10;;;;;;;3.87;100.00;99034.06;5018253;28;20456;-57
2021/12/27 04:52:47;;;;;;;0.20;0.10;;;;;;;3.87;100.00;99026.19;5017768;28;20456;-58
2021/12/27 04:55:14;;;;;;;0.20;0.13;;;;;;;3.95;100.00;99036.53;5017092;28;20551;-58
2021/12/27 04:57:41;;;;;;;3.50;1.33;;;;;;;3.82;100.00;99035.91;5016893;28;20965;-58
2021/12/27 05:00:08;;;;;;;1.23;0.63;;;;;;;3.96;100.00;99035.63;5017347;28;20453;-58
2021/12/27 05:02:35;;;;;;;0.20;0.10;;;;;;;4.03;100.00;99026.72;5017342;28;20464;-55
2021/12/27 05:05:02;;;;;;;0.20;0.10;;;;;;;4.07;100.00;99025.72;5014806;28;20949;-55
2021/12/27 05:07:29;;;;;;;0.20;0.10;;;;;;;3.93;100.00;99022.56;5014896;28;20518;-55
2021/12/27 05:09:56;;;;;;;0.20;0.10;;;;;;;3.87;100.00;99020.94;5017191;28;20969;-53
2021/12/27 05:12:22;;;;;;;0.20;0.10;;;;;;;3.97;100.00;99008.44;5014755;28;20448;-53
2021/12/27 05:14:49;;;;;;;0.20;0.10;;;;;;;3.97;100.00;99013.69;5014627;28;20527;-53
2021/12/27 05:17:16;;;;;;;0.20;0.10;;;;;;;3.99;100.00;99022.44;5014293;28;20487;-53
2021/12/27 05:19:42;;;;;;;0.20;0.10;;;;;;;4.01;100.00;99018.88;5014732;28;20472;-54
2021/12/27 05:22:09;;;;;;;0.20;0.10;;;;;;;3.98;100.00;99018.06;5014382;28;20506;-54
2021/12/27 05:24:35;;;;;;;0.20;0.10;;;;;;;3.83;100.00;99017.47;5014222;28;20444;-54
2021/12/27 05:27:02;;;;;;;0.20;0.10;;;;;;;3.93;100.00;99022.56;5014781;28;20461;-53
2021/12/27 05:29:29;;;;;;;0.20;0.10;;;;;;;3.96;100.00;99018.09;5014195;28;20542;-53
2021/12/27 05:32:01;;;;;;;0.20;0.10;;;;;;;3.97;100.00;99029.47;5014186;28;20464;-53
2021/12/27 05:34:34;;;;;;;0.20;0.10;;;;;;;3.97;100.00;99030.31;5013629;28;20491;-53
2021/12/27 05:37:00;;;;;;;0.20;0.10;;;;;;;3.91;100.00;99025.22;5017437;28;20459;-57
2021/12/27 05:39:27;;;;;;;0.20;0.10;;;;;;;3.96;100.00;99020.72;5020246;28;20472;-57
2021/12/27 05:41:54;;;;;;;0.80;0.80;;;;;;;3.84;100.00;99013.13;5019730;28;20456;-58
2021/12/27 05:44:21;;;;;;;0.20;0.10;;;;;;;3.94;100.00;99017.25;5019610;28;20453;-57
2021/12/27 05:46:47;;;;;;;0.20;0.10;;;;;;;3.95;100.00;99011.09;5019524;28;20492;-54
2021/12/27 05:49:14;;;;;;;0.20;0.13;;;;;;;3.91;100.00;99003.31;5014041;28;20468;-56
2021/12/27 05:51:43;;;;;;;0.20;0.10;;;;;;;3.94;100.00;99008.50;5013761;28;20445;-56
2021/12/27 05:54:12;;;;;;;0.20;0.10;;;;;;;4.01;100.00;98994.34;5012459;28;21008;-55
2021/12/27 05:56:41;;;;;;;0.20;0.10;;;;;;;3.98;100.00;98995.28;5014130;28;20543;-54
2021/12/27 05:59:07;;;;;;;4.30;1.33;;;;;;;3.96;100.00;98989.16;5013654;28;20469;-54
2021/12/27 06:01:34;;;;;;;0.20;0.10;;;;;;;4.06;100.00;98979.31;5013438;28;20957;-54
2021/12/27 06:04:01;;;;;;;0.20;0.10;;;;;;;3.98;100.00;98990.03;5013806;28;20463;-54
2021/12/27 06:06:28;;;;;;;0.20;0.10;;;;;;;4.09;100.00;98981.84;5013618;28;20497;-54
2021/12/27 06:08:54;;;;;;;0.40;0.40;;;;;;;3.98;100.00;98984.75;5013532;28;20476;-54
2021/12/27 06:11:21;;;;;;;0.20;0.10;;;;;;;4.08;100.00;98986.25;5013730;28;20452;-54
2021/12/27 06:13:48;;;;;;;0.20;0.10;;;;;;;3.94;100.00;98985.72;5013376;28;20460;-54
2021/12/27 06:16:15;;;;;;;0.20;0.10;;;;;;;3.96;100.00;98986.53;5013635;28;20512;-54
2021/12/27 06:18:42;;;;;;;0.20;0.10;;;;;;;3.93;100.00;98972.59;5013466;28;20479;-54
2021/12/27 06:21:08;;;;;;;0.20;0.10;;;;;;;3.85;100.00;98967.53;5015178;28;20452;-58
2021/12/27 06:23:37;;;;;;;0.20;0.10;;;;;;;4.00;100.00;98980.34;5015543;28;20820;-58
2021/12/27 06:26:04;;;;;;;0.20;0.10;;;;;;;3.95;100.00;98978.69;5015689;28;20448;-58
2021/12/27 06:28:34;;;;;;;0.20;0.10;;;;;;;4.03;100.00;98982.03;5015671;28;20900;-57
2021/12/27 06:31:01;;;;;;;0.20;0.10;;;;;;;3.99;100.00;98985.63;5015651;28;20472;-58
2021/12/27 06:33:29;;;;;;;0.20;0.10;;;;;;;4.00;100.00;98984.72;5015097;28;20547;-58
2021/12/27 06:35:59;;;;;;;0.20;0.10;;;;;;;3.99;100.00;98991.75;5015130;28;20492;-58
2021/12/27 06:38:25;;;;;;;0.20;0.10;;;;;;;3.90;100.00;98972.69;5015698;28;20542;-57
2021/12/27 06:40:53;;;;;;;0.20;0.20;;;;;;;3.92;100.00;98981.41;5015724;28;20468;-57
2021/12/27 06:43:20;;;;;;;0.20;0.10;;;;;;;3.96;100.00;98972.53;5014735;28;20449;-58
2021/12/27 06:45:46;;;;;;;0.20;0.10;;;;;;;4.03;100.00;98969.72;5014240;28;20456;-57
2021/12/27 06:48:15;;;;;;;0.20;0.10;;;;;;;4.24;100.00;98968.34;5014455;28;20534;-58
2021/12/27 06:50:42;;;;;;;1.07;1.07;;;;;;;4.01;100.00;98973.31;5013165;28;20464;-58
2021/12/27 06:53:09;;;;;;;0.20;0.10;;;;;;;4.13;100.00;98983.53;5014261;28;20924;-58
2021/12/27 06:55:41;;;;;;;0.20;0.10;;;;;;;4.04;100.00;98963.56;5014332;28;20516;-58
2021/12/27 06:58:07;;;;;;;0.20;0.10;;;;;;;4.14;100.00;98967.72;5013867;28;20546;-58
2021/12/27 07:00:34;;;;;;;0.47;0.47;;;;;;;4.11;100.00;98974.78;5014317;28;20484;-58
2021/12/27 07:03:01;;;;;;;0.20;0.10;;;;;;;4.21;100.00;98957.03;5013973;28;20449;-58
2021/12/27 07:05:27;;;;;;;2.20;1.90;;;;;;;4.32;100.00;98942.72;5013952;28;20484;-58
2021/12/27 07:07:54;;;;;;;0.20;0.10;;;;;;;4.12;100.00;98945.00;5014206;28;20476;-58
2021/12/27 07:10:22;;;;;;;0.20;0.10;;;;;;;3.68;100.00;98941.63;5013671;28;20484;-58
2021/12/27 07:12:49;;;;;;;0.20;0.10;;;;;;;3.79;100.00;98944.88;5014103;28;20531;-58
2021/12/27 07:15:16;;;;;;;0.20;0.10;;;;;;;3.84;100.00;98943.03;5014089;28;20913;-57
2021/12/27 07:17:43;;;;;;;0.77;0.63;;;;;;;3.97;100.00;98961.97;5013757;28;20444;-57
2021/12/27 07:20:10;;;;;;;0.30;0.20;;;;;;;3.79;100.00;98971.16;5013111;28;20499;-57
2021/12/27 07:22:38;;;;;;;0.20;0.13;;;;;;;3.87;100.00;98971.00;5012940;28;20504;-57
2021/12/27 07:25:05;;;;;;;0.20;0.10;;;;;;;3.92;100.00;98961.22;5012825;28;20452;-57
2021/12/27 07:27:32;;;;;;;0.20;0.17;;;;;;;3.95;100.00;98962.91;5014343;28;20477;-56
2021/12/27 07:29:59;;;;;;;0.20;0.10;;;;;;;3.99;100.00;98970.72;5013587;28;20507;-57
2021/12/27 07:32:25;;;;;;;0.20;0.20;;;;;;;3.98;100.00;98984.75;5016474;28;20453;-55
2021/12/27 07:34:52;;;;;;;0.20;0.10;;;;;;;3.97;100.00;98977.75;5016760;28;20503;-55
2021/12/27 07:37:19;;;;;;;0.30;0.20;;;;;;;4.00;100.00;98993.47;5015475;28;20456;-56
2021/12/27 07:39:46;;;;;;;0.20;0.10;;;;;;;3.91;100.00;98987.56;5013234;28;20522;-54
2021/12/27 07:42:12;;;;;;;0.20;0.10;;;;;;;3.95;100.00;98986.56;5012423;28;20503;-54
2021/12/27 07:44:39;;;;;;;0.20;0.17;;;;;;;4.04;100.00;98994.25;5012374;28;20499;-54
2021/12/27 07:47:06;;;;;;;1.07;1.07;;;;;;;4.01;100.00;98981.19;5012175;28;20457;-56
2021/12/27 07:49:32;;;;;;;0.50;0.50;;;;;;;4.00;100.00;98968.94;5011823;28;20526;-54
2021/12/27 07:51:59;;;;;;;0.20;0.20;;;;;;;4.10;100.00;98968.69;5012381;28;20457;-54
2021/12/27 07:54:26;;;;;;;0.20;0.10;;;;;;;4.11;100.00;98969.53;5011943;28;20487;-54
2021/12/27 07:56:53;;;;;;;0.20;0.10;;;;;;;4.14;100.00;98966.88;5013134;28;20464;-55
2021/12/27 07:59:20;;;;;;;0.20;0.10;;;;;;;4.19;100.00;98961.47;5016169;28;20534;-56
2021/12/27 08:01:46;;;;;;;0.20;0.10;;;;;;;4.12;100.00;98960.78;5016151;28;20460;-55
2021/12/27 08:04:13;;;;;;;0.20;0.10;;;;;;;4.18;100.00;98959.75;5014644;28;20452;-56
2021/12/27 08:06:40;;;;;;;0.20;0.10;;;;;;;4.18;100.00;98958.00;5016517;28;20950;-56
2021/12/27 08:09:07;;;;;;;0.20;0.10;;;;;;;4.15;100.00;98950.19;5016287;28;20527;-56
2021/12/27 08:11:33;;;;;;;0.20;0.10;;;;;;;3.98;100.00;98941.84;5016309;28;20457;-56
2021/12/27 08:14:00;;;;;;;0.20;0.10;;;;;;;3.95;100.00;98936.63;5015569;28;20460;-56
2021/12/27 08:16:27;;;;;;;0.20;0.10;;;;;;;4.02;100.00;98946.13;5015306;28;20527;-56
2021/12/27 08:18:55;;;;;;;0.20;0.10;;;;;;;4.05;100.00;98939.00;5015762;28;20993;-56
2021/12/27 08:21:24;;;;;;;0.20;0.10;;;;;;;3.96;100.00;98939.22;5016065;28;20882;-56
2021/12/27 08:23:51;;;;;;;0.20;0.10;;;;;;;4.06;100.00;98947.75;5015434;28;20444;-55
2021/12/27 08:26:19;;;;;;;0.20;0.10;;;;;;;4.14;100.00;98953.72;5015185;28;20449;-56
2021/12/27 08:28:49;;;;;;;0.30;0.20;;;;;;;4.06;100.00;98950.38;5015440;28;20492;-55
2021/12/27 08:31:16;;;;;;;0.20;0.10;;;;;;;4.15;100.00;98950.19;5014952;28;20514;-56
2021/12/27 08:33:43;;;;;;;0.20;0.10;;;;;;;4.37;100.00;98956.63;5015721;28;20456;-56
2021/12/27 08:36:10;;;;;;;0.20;0.10;;;;;;;4.27;100.00;98949.03;5015562;28;20499;-55
2021/12/27 08:38:37;;;;;;;0.20;0.10;;;;;;;4.29;100.00;98947.22;5002761;28;20546;-56
2021/12/27 08:41:04;;;;;;;5.13;1.47;;;;;;;4.24;100.00;98951.69;5015574;28;20936;-56
2021/12/27 08:43:31;;;;;;;0.30;0.20;;;;;;;4.37;100.00;98953.13;5015561;28;20453;-56
2021/12/27 08:45:59;;;;;;;0.20;0.10;;;;;;;4.43;100.00;98951.22;5012052;28;20515;-57
2021/12/27 08:48:26;;;;;;;0.20;0.10;;;;;;;4.32;100.00;98955.88;5014870;28;20476;-56
2021/12/27 08:50:53;;;;;;;0.20;0.10;;;;;;;4.42;100.00;98953.88;5015591;28;20448;-56
2021/12/27 08:53:20;;;;;;;0.20;0.10;;;;;;;4.30;100.00;98956.81;5015494;28;20514;-56
2021/12/27 08:55:46;;;;;;;0.20;0.10;;;;;;;4.23;100.00;98961.34;5014708;28;20498;-55
2021/12/27 08:58:14;;;;;;;0.20;0.20;;;;;;;4.28;100.00;98951.59;5012518;28;20484;-55
2021/12/27 09:00:41;;;;;;;0.20;0.20;;;;;;;4.26;100.00;98942.03;5015538;28;20452;-55
2021/12/27 09:03:11;;;;;;;0.20;0.10;;;;;;;4.37;100.00;98951.34;5004807;28;21068;-56
2021/12/27 09:05:39;;;;;;;0.20;0.10;;;;;;;4.30;100.00;98943.69;5008005;28;20992;-56
2021/12/27 09:08:06;;;;;;;0.20;0.10;;;;;;;4.29;100.00;98945.44;5007604;28;20464;-56
2021/12/27 09:10:33;;;;;;;0.20;0.10;;;;;;;4.36;100.00;98948.78;5011891;28;21013;-58
2021/12/27 09:13:00;;;;;;;0.47;0.47;;;;;;;4.46;100.00;98937.97;5012972;28;21351;-56
2021/12/27 09:15:28;;;;;;;0.20;0.10;;;;;;;4.36;100.00;98944.38;5011166;28;20497;-58
2021/12/27 09:17:55;;;;;;;0.20;0.10;;;;;;;4.36;100.00;98930.34;5012325;28;20511;-58
2021/12/27 09:20:24;;;;;;;0.20;0.10;;;;;;;4.43;100.00;98930.19;5012811;28;21346;-58
2021/12/27 09:22:51;;;;;;;0.20;0.10;;;;;;;4.28;100.00;98924.44;5012156;28;20518;-55
2021/12/27 09:25:18;;;;;;;0.20;0.13;;;;;;;4.47;100.00;98933.59;5013005;28;20511;-58
2021/12/27 09:27:44;;;;;;;0.33;0.30;;;;;;;4.43;100.00;98935.44;5010604;28;20978;-57
2021/12/27 09:30:14;;;;;;;0.20;0.10;;;;;;;4.49;100.00;98936.16;5009444;28;20456;-56
2021/12/27 09:32:40;;;;;;;0.20;0.20;;;;;;;4.47;100.00;98941.47;5009774;28;20495;-56
2021/12/27 09:35:07;;;;;;;0.20;0.20;;;;;;;4.74;100.00;98938.13;5009592;28;20448;-56
2021/12/27 09:37:34;;;;;;;0.20;0.10;;;;;;;4.58;100.00;98939.44;5009730;28;20507;-55
2021/12/27 09:40:01;;;;;;;0.20;0.13;;;;;;;4.87;100.00;98935.16;5009862;28;20452;-56
2021/12/27 09:42:28;;;;;;;0.20;0.10;;;;;;;4.61;100.00;98920.94;5009912;28;20535;-55
2021/12/27 09:44:56;;;;;;;0.20;0.10;;;;;;;4.48;100.00;98927.41;5009716;28;20514;-56
2021/12/27 09:47:24;;;;;;;0.33;0.30;;;;;;;4.49;100.00;98923.00;5009836;28;20445;-56
2021/12/27 09:50:11;;;;;;;0.20;0.20;;;;;;;4.49;100.00;98913.34;4998152;28;20460;-56
2021/12/27 09:52:38;;;;;;;0.20;0.10;;;;;;;4.67;100.00;98898.88;5009631;28;20452;-56
2021/12/27 09:55:05;;;;;;;0.30;0.20;;;;;;;4.85;100.00;98911.50;5009457;28;20453;-56
2021/12/27 09:57:33;;;;;;;0.20;0.10;;;;;;;4.72;100.00;98908.34;5009582;28;20937;-56
2021/12/27 10:00:00;;;;;;;0.20;0.10;;;;;;;4.61;100.00;98901.63;5009413;28;20460;-56
2021/12/27 10:02:27;;;;;;;0.20;0.10;;;;;;;4.73;100.00;98906.56;5008399;28;20516;-56
2021/12/27 10:04:54;;;;;;;0.20;0.20;;;;;;;4.68;100.00;98905.84;5009467;28;20466;-56
2021/12/27 10:07:22;;;;;;;0.20;0.20;;;;;;;4.70;100.00;98907.53;5009499;28;20453;-57
2021/12/27 10:10:00;;;;;;;0.30;0.30;;;;;;;4.86;100.00;98905.34;5009138;28;20803;-56
2021/12/27 10:12:27;;;;;;;0.20;0.10;;;;;;;4.88;100.00;98900.88;5008991;28;20444;-56
2021/12/27 10:14:58;;;;;;;0.20;0.20;;;;;;;4.83;100.00;98902.78;5009048;28;20542;-56
2021/12/27 10:17:25;;;;;;;0.30;0.20;;;;;;;4.86;100.00;98902.69;5007559;28;20456;-56
2021/12/27 10:19:55;;;;;;;0.20;0.10;;;;;;;4.73;100.00;98894.28;5008956;28;20452;-56
2021/12/27 10:22:24;;;;;;;0.20;0.10;;;;;;;4.82;100.00;98894.94;4996204;28;20472;-57
2021/12/27 10:24:53;;;;;;;0.20;0.10;;;;;;;4.86;100.00;98889.53;5008784;28;20514;-56
2021/12/27 10:27:24;;;;;;;0.47;0.43;;;;;;;4.88;100.00;98878.97;5008185;28;20463;-56
2021/12/27 10:29:50;;;;;;;0.20;0.10;;;;;;;5.10;100.00;98887.97;5008040;28;20488;-56
2021/12/27 10:32:18;;;;;;;0.20;0.20;;;;;;;4.90;100.00;98883.28;5007287;28;21067;-55
2021/12/27 10:34:52;;;;;;;0.20;0.10;;;;;;;4.98;100.00;98877.81;5007718;28;20515;-56
2021/12/27 10:37:41;;;;;;;0.20;0.20;;;;;;;5.10;100.00;98871.31;5007462;28;20542;-55
2021/12/27 10:40:11;;;;;;;0.20;0.10;;;;;;;5.05;100.00;98874.06;5006397;28;20456;-57
2021/12/27 10:42:44;;;;;;;0.20;0.10;;;;;;;5.11;100.00;98863.38;5006982;28;20460;-56
2021/12/27 10:45:20;;;;;;;0.20;0.10;;;;;;;5.08;100.00;98865.25;5006949;28;20466;-54
2021/12/27 10:47:54;;;;;;;0.20;0.10;;;;;;;5.16;100.00;98864.09;5006992;28;20558;-56
2021/12/27 10:50:33;;;;;;;0.20;0.20;;;;;;;5.13;100.00;98872.09;5004120;28;20459;-55
2021/12/27 10:53:03;;;;;;;0.30;0.20;;;;;;;5.14;100.00;98870.31;5007526;28;21137;-56
2021/12/27 10:55:46;;;;;;;0.20;0.20;;;;;;;5.23;100.00;98867.41;5006203;28;20506;-55
2021/12/27 10:58:25;;;;;;;0.43;0.43;;;;;;;5.24;100.00;98869.13;5005868;28;20488;-56
2021/12/27 11:01:03;;;;;;;0.20;0.20;;;;;;;5.29;100.00;98868.06;5006808;28;20457;-56
2021/12/27 11:03:36;;;;;;;0.30;0.20;;;;;;;5.40;100.00;98864.25;5005493;28;20453;-56
2021/12/27 11:06:06;;;;;;;0.20;0.20;;;;;;;5.35;100.00;98853.88;5007053;28;20457;-57
2021/12/27 11:08:35;;;;;;;0.20;0.10;;;;;;;5.36;100.00;98845.06;5006615;28;20472;-57
2021/12/27 11:11:03;;;;;;;0.20;0.20;;;;;;;5.45;100.00;98842.13;5007010;28;20456;-60
2021/12/27 11:13:32;;;;;;;0.40;0.40;;;;;;;5.64;100.00;98838.00;5006508;28;20538;-59
2021/12/27 11:15:59;;;;;;;0.20;0.10;;;;;;;5.64;100.00;98842.41;5007136;28;21088;-54
2021/12/27 11:18:26;;;;;;;0.20;0.20;;;;;;;5.64;100.00;98842.41;5006256;28;20576;-55
2021/12/27 11:20:56;;;;;;;0.20;0.20;;;;;;;5.66;100.00;98832.69;5006301;28;20511;-55
2021/12/27 11:23:24;;;;;;;0.20;0.20;;;;;;;5.68;100.00;98835.25;5006002;28;20869;-57
2021/12/27 11:26:12;;;;;;;0.20;0.10;;;;;;;5.63;100.00;98831.00;5005126;28;21086;-57
2021/12/27 11:28:41;;;;;;;0.30;0.30;;;;;;;5.62;100.00;98829.28;5006586;28;20508;-56
2021/12/27 11:31:28;;;;;;;0.30;0.20;;;;;;;5.65;100.00;98831.81;5004641;28;20464;-55
2021/12/27 11:33:59;;;;;;;0.30;0.20;;;;;;;5.67;100.00;98820.38;5006388;28;20460;-55
2021/12/27 11:36:34;;;;;;;0.20;0.10;;;;;;;5.80;100.00;98821.69;5006523;28;20492;-56
2021/12/27 11:39:23;;;;;;;0.20;0.20;;;;;;;5.73;100.00;98818.38;5006550;28;20970;-55
2021/12/27 11:42:09;;;;;;;0.30;0.20;;;;;;;5.76;100.00;98815.66;5004667;28;20491;-55
2021/12/27 11:44:53;;;;;;;0.20;0.10;;;;;;;5.75;100.00;98831.50;5006196;28;20963;-54